Time;durP1;ratioP1;P1;durP2;ratioP2;P2;SDS_P1;SDS_P2;PMS_P1;PMS_P2;Temp;Humidity;BMP_temperature;BMP_pressure;BME280_temperature;BME280_humidity;BME280_pressure;Samples;Min_cycle;Max_cycle;Signal;HPM_P1;HPM_P2
2021/10/01 19:51:09;;;;;;;57.43;33.55;;;;;;;7.64;100.00;102530.16;1856302;77;27164;-93
2021/10/01 19:53:37;;;;;;;65.47;34.23;;;;;;;7.53;100.00;102530.04;1825605;78;21005;-92
2021/10/01 19:56:05;;;;;;;66.80;35.92;;;;;;;7.51;100.00;102535.71;1826239;78;21123;-93
2021/10/01 19:58:32;;;;;;;68.72;38.63;;;;;;;7.47;100.00;102532.83;1795963;78;21040;-91
2021/10/01 20:01:03;;;;;;;62.25;36.83;;;;;;;7.47;100.00;102538.02;1825700;78;20984;-92
2021/10/01 20:03:30;;;;;;;66.87;38.95;;;;;;;7.51;100.00;102533.12;1813743;78;20928;-91
2021/10/01 20:06:01;;;;;;;61.98;38.73;;;;;;;7.62;100.00;102539.25;1825591;78;22071;-94
2021/10/01 20:08:28;;;;;;;62.20;36.50;;;;;;;7.68;100.00;102531.73;1794035;78;22001;-89
2021/10/01 20:10:55;;;;;;;58.75;32.83;;;;;;;7.67;100.00;102530.91;1795789;78;21270;-91
2021/10/01 20:13:22;;;;;;;60.98;34.63;;;;;;;7.58;100.00;102527.30;1819544;78;21040;-88
2021/10/01 20:15:49;;;;;;;55.80;33.67;;;;;;;7.51;100.00;102527.94;1787198;79;21038;-91
2021/10/01 20:21:26;;;;;;;53.60;31.93;;;;;;;7.49;100.00;102533.61;1788408;78;21193;-94
2021/10/01 20:23:48;;;;;;;51.00;31.02;;;;;;;7.48;100.00;102535.83;1819623;77;21100;-91
2021/10/01 20:48:02;;;;;;;35.45;20.77;;;;;;;7.03;100.00;102531.13;1752775;79;21139;-92
2021/10/01 20:50:29;;;;;;;46.23;21.65;;;;;;;6.98;100.00;102534.31;1762587;80;21073;-92
2021/10/01 20:52:58;;;;;;;39.45;22.42;;;;;;;6.93;100.00;102527.97;1754600;80;21081;-89
2021/10/01 20:55:27;;;;;;;34.65;19.23;;;;;;;6.95;100.00;102532.20;1754125;80;21042;-91
2021/10/01 20:58:07;;;;;;;;;;;;;;;;;;;;;
2021/10/01 21:00:56;;;;;;;27.65;17.50;;;;;;;6.92;100.00;102531.02;1752444;80;21802;-92
2021/10/01 21:41:34;;;;;;;18.70;13.70;;;;;;;6.55;100.00;102519.09;1784129;79;21915;-91
2021/10/01 21:44:13;;;;;;;17.23;12.70;;;;;;;6.53;100.00;102516.98;1779309;79;21007;-93
2021/10/01 21:49:06;;;;;;;24.05;13.08;;;;;;;6.46;100.00;102517.63;1783381;79;21033;-91
2021/10/01 21:51:41;;;;;;;22.75;13.43;;;;;;;6.45;100.00;102518.94;1757787;79;21069;-91
2021/10/01 21:54:11;;;;;;;17.73;12.33;;;;;;;6.44;100.00;102512.09;1780440;79;21074;-90
2021/10/01 21:56:40;;;;;;;21.07;11.93;;;;;;;6.45;100.00;102514.63;1782659;79;21058;-93
2021/10/01 21:59:15;;;;;;;19.15;10.95;;;;;;;6.44;100.00;102515.52;1782791;79;21105;-91
2021/10/01 22:01:37;;;;;;;18.45;11.25;;;;;;;6.40;100.00;102520.81;1779115;79;21101;-90
2021/10/01 22:09:34;;;;;;;14.90;10.25;;;;;;;6.19;100.00;102521.80;1787714;79;20915;-89
2021/10/01 22:20:05;;;;;;;22.55;11.83;;;;;;;5.51;100.00;102522.13;1805353;79;21141;-88
2021/10/01 22:22:39;;;;;;;21.17;12.37;;;;;;;5.37;100.00;102522.02;1805283;78;21002;-90
2021/10/01 22:25:09;;;;;;;16.87;11.88;;;;;;;5.29;100.00;102524.38;1805809;79;21045;-89
2021/10/01 22:27:37;;;;;;;15.93;11.88;;;;;;;5.20;100.00;102526.70;1783601;79;21042;-91
2021/10/01 22:30:08;;;;;;;16.02;10.93;;;;;;;5.10;100.00;102522.61;1783380;79;21172;-89
2021/10/01 22:32:35;;;;;;;16.20;12.03;;;;;;;5.02;100.00;102526.66;1783937;79;21071;-91
2021/10/01 22:35:04;;;;;;;16.10;12.90;;;;;;;4.94;100.00;102524.22;1805987;79;21105;-90
2021/10/01 22:37:32;;;;;;;21.90;13.15;;;;;;;4.87;100.00;102524.81;1783578;79;21042;-92
2021/10/01 22:40:08;;;;;;;23.90;13.83;;;;;;;4.81;100.00;102526.20;1805302;78;21564;-89
2021/10/01 22:42:32;;;;;;;17.98;11.45;;;;;;;4.74;100.00;102523.34;1781795;79;21018;-91
2021/10/01 22:45:08;;;;;;;17.98;11.73;;;;;;;4.70;100.00;102524.30;1782708;79;21121;-92
2021/10/01 22:47:37;;;;;;;18.65;12.13;;;;;;;4.70;100.00;102528.17;1780137;79;21549;-93
2021/10/01 22:50:08;;;;;;;20.57;12.90;;;;;;;4.71;100.00;102523.42;1773335;80;20966;-91
2021/10/01 22:52:37;;;;;;;17.90;12.47;;;;;;;4.70;100.00;102526.42;1745139;80;21968;-93
2021/10/01 22:55:12;;;;;;;20.17;12.93;;;;;;;4.69;100.00;102530.33;1767278;79;21120;-91
2021/10/01 22:57:45;;;;;;;18.98;11.78;;;;;;;4.68;100.00;102528.21;1745334;81;21072;-92
2021/10/01 23:00:19;;;;;;;21.20;12.33;;;;;;;4.69;100.00;102528.59;1741960;81;21049;-92
2021/10/01 23:02:51;;;;;;;25.23;13.48;;;;;;;4.68;100.00;102531.21;1767175;81;21076;-89
2021/10/01 23:05:27;;;;;;;19.48;12.88;;;;;;;4.70;100.00;102529.00;1745842;81;20998;-93
2021/10/01 23:07:58;;;;;;;24.30;13.70;;;;;;;4.87;100.00;102533.84;1766933;81;21064;-92
2021/10/01 23:16:01;;;;;;;25.62;13.43;;;;;;;5.01;100.00;102530.95;1746078;81;21060;-90
2021/10/01 23:53:37;;;;;;;18.92;12.43;;;;;;;5.07;100.00;102518.36;1792979;78;21073;-89
